sensor_id;sensor_type;location;lat;lon;timestamp;P1;durP1;ratioP1;P2;durP2;ratioP2
22240;SDS011;11289;52.524;13.694;2024-01-06T00:01:42;44.03;;;24.65;;
22240;SDS011;11289;52.524;13.694;2024-01-06T00:04:08;42.22;;;24.40;;
22240;SDS011;11289;52.524;13.694;2024-01-06T00:06:34;45.78;;;25.10;;
22240;SDS011;11289;52.524;13.694;2024-01-06T00:09:00;44.63;;;24.63;;
22240;SDS011;11289;52.524;13.694;2024-01-06T00:11:26;43.88;;;24.38;;
22240;SDS011;11289;52.524;13.694;2024-01-06T00:13:52;51.53;;;25.77;;
22240;SDS011;11289;52.524;13.694;2024-01-06T00:16:18;42.80;;;24.73;;
22240;SDS011;11289;52.524;13.694;2024-01-06T00:18:45;45.53;;;25.55;;
22240;SDS011;11289;52.524;13.694;2024-01-06T00:21:11;43.38;;;25.45;;
22240;SDS011;11289;52.524;13.694;2024-01-06T00:23:37;43.58;;;24.30;;
22240;SDS011;11289;52.524;13.694;2024-01-06T00:26:04;41.75;;;23.92;;
22240;SDS011;11289;52.524;13.694;2024-01-06T00:28:30;45.40;;;24.52;;
22240;SDS011;11289;52.524;13.694;2024-01-06T00:30:55;38.70;;;24.67;;
22240;SDS011;11289;52.524;13.694;2024-01-06T00:33:21;43.05;;;24.05;;
22240;SDS011;11289;52.524;13.694;2024-01-06T00:35:47;44.90;;;24.42;;
22240;SDS011;11289;52.524;13.694;2024-01-06T00:38:13;48.60;;;24.75;;
22240;SDS011;11289;52.524;13.694;2024-01-06T00:40:39;43.55;;;23.73;;
22240;SDS011;11289;52.524;13.694;2024-01-06T00:43:05;42.38;;;24.02;;
22240;SDS011;11289;52.524;13.694;2024-01-06T00:45:31;42.08;;;23.88;;
22240;SDS011;11289;52.524;13.694;2024-01-06T00:47:57;43.67;;;24.30;;
22240;SDS011;11289;52.524;13.694;2024-01-06T00:50:23;45.08;;;25.23;;
22240;SDS011;11289;52.524;13.694;2024-01-06T00:52:49;44.47;;;23.55;;
22240;SDS011;11289;52.524;13.694;2024-01-06T00:55:21;43.50;;;24.20;;
22240;SDS011;11289;52.524;13.694;2024-01-06T00:57:48;45.15;;;24.73;;
22240;SDS011;11289;52.524;13.694;2024-01-06T01:00:14;42.58;;;24.80;;
22240;SDS011;11289;52.524;13.694;2024-01-06T01:02:40;40.60;;;24.40;;
22240;SDS011;11289;52.524;13.694;2024-01-06T01:05:06;41.33;;;23.15;;
22240;SDS011;11289;52.524;13.694;2024-01-06T01:07:33;44.08;;;23.40;;
22240;SDS011;11289;52.524;13.694;2024-01-06T01:09:59;42.47;;;22.75;;
22240;SDS011;11289;52.524;13.694;2024-01-06T01:12:25;43.42;;;24.05;;
22240;SDS011;11289;52.524;13.694;2024-01-06T01:14:52;41.63;;;23.55;;
22240;SDS011;11289;52.524;13.694;2024-01-06T01:17:18;37.78;;;23.58;;
22240;SDS011;11289;52.524;13.694;2024-01-06T01:19:44;44.67;;;23.67;;
22240;SDS011;11289;52.524;13.694;2024-01-06T01:22:10;40.05;;;22.83;;
22240;SDS011;11289;52.524;13.694;2024-01-06T01:24:36;40.95;;;23.08;;
22240;SDS011;11289;52.524;13.694;2024-01-06T01:27:02;38.38;;;23.55;;
22240;SDS011;11289;52.524;13.694;2024-01-06T01:29:28;41.30;;;22.92;;
22240;SDS011;11289;52.524;13.694;2024-01-06T01:31:54;38.90;;;22.88;;
22240;SDS011;11289;52.524;13.694;2024-01-06T01:34:20;47.97;;;23.67;;
22240;SDS011;11289;52.524;13.694;2024-01-06T01:36:46;40.58;;;22.88;;
22240;SDS011;11289;52.524;13.694;2024-01-06T01:39:12;46.63;;;23.80;;
22240;SDS011;11289;52.524;13.694;2024-01-06T01:41:39;40.75;;;22.85;;
22240;SDS011;11289;52.524;13.694;2024-01-06T01:44:05;39.55;;;22.08;;
22240;SDS011;11289;52.524;13.694;2024-01-06T01:46:31;38.90;;;22.10;;
22240;SDS011;11289;52.524;13.694;2024-01-06T01:48:58;42.83;;;22.90;;
22240;SDS011;11289;52.524;13.694;2024-01-06T01:51:33;39.85;;;22.45;;
22240;SDS011;11289;52.524;13.694;2024-01-06T01:54:04;44.20;;;22.42;;
22240;SDS011;11289;52.524;13.694;2024-01-06T01:56:31;41.97;;;22.92;;
22240;SDS011;11289;52.524;13.694;2024-01-06T01:59:11;41.90;;;21.75;;
22240;SDS011;11289;52.524;13.694;2024-01-06T02:01:39;42.00;;;23.55;;
22240;SDS011;11289;52.524;13.694;2024-01-06T02:04:06;40.22;;;23.48;;
22240;SDS011;11289;52.524;13.694;2024-01-06T02:06:32;40.80;;;22.50;;
22240;SDS011;11289;52.524;13.694;2024-01-06T02:08:58;39.00;;;22.80;;
22240;SDS011;11289;52.524;13.694;2024-01-06T02:11:24;40.70;;;23.15;;
22240;SDS011;11289;52.524;13.694;2024-01-06T02:13:50;37.03;;;21.85;;
22240;SDS011;11289;52.524;13.694;2024-01-06T02:16:16;42.95;;;23.02;;
22240;SDS011;11289;52.524;13.694;2024-01-06T02:18:42;39.67;;;21.52;;
22240;SDS011;11289;52.524;13.694;2024-01-06T02:21:08;42.33;;;23.05;;
22240;SDS011;11289;52.524;13.694;2024-01-06T02:23:36;43.78;;;23.30;;
22240;SDS011;11289;52.524;13.694;2024-01-06T02:26:02;41.75;;;22.70;;
22240;SDS011;11289;52.524;13.694;2024-01-06T02:28:28;43.63;;;22.63;;
22240;SDS011;11289;52.524;13.694;2024-01-06T02:30:54;45.92;;;23.63;;
22240;SDS011;11289;52.524;13.694;2024-01-06T02:33:20;44.03;;;23.48;;
22240;SDS011;11289;52.524;13.694;2024-01-06T02:35:49;43.40;;;22.75;;
22240;SDS011;11289;52.524;13.694;2024-01-06T02:38:15;48.42;;;24.30;;
22240;SDS011;11289;52.524;13.694;2024-01-06T02:40:41;45.85;;;23.17;;
22240;SDS011;11289;52.524;13.694;2024-01-06T02:43:08;39.58;;;22.73;;
22240;SDS011;11289;52.524;13.694;2024-01-06T02:45:35;42.40;;;23.85;;
22240;SDS011;11289;52.524;13.694;2024-01-06T02:48:01;44.33;;;23.13;;
22240;SDS011;11289;52.524;13.694;2024-01-06T02:50:27;45.08;;;24.38;;
22240;SDS011;11289;52.524;13.694;2024-01-06T02:52:53;48.47;;;25.30;;
22240;SDS011;11289;52.524;13.694;2024-01-06T02:55:19;42.95;;;23.60;;
22240;SDS011;11289;52.524;13.694;2024-01-06T02:57:44;44.05;;;25.92;;
22240;SDS011;11289;52.524;13.694;2024-01-06T03:00:10;41.88;;;23.77;;
22240;SDS011;11289;52.524;13.694;2024-01-06T03:02:38;45.33;;;23.73;;
22240;SDS011;11289;52.524;13.694;2024-01-06T03:05:07;37.78;;;23.35;;
22240;SDS011;11289;52.524;13.694;2024-01-06T03:07:34;45.65;;;24.17;;
22240;SDS011;11289;52.524;13.694;2024-01-06T03:10:00;40.10;;;23.35;;
22240;SDS011;11289;52.524;13.694;2024-01-06T03:12:26;41.78;;;23.13;;
22240;SDS011;11289;52.524;13.694;2024-01-06T03:14:52;43.67;;;23.58;;
22240;SDS011;11289;52.524;13.694;2024-01-06T03:17:18;42.50;;;23.05;;
22240;SDS011;11289;52.524;13.694;2024-01-06T03:19:44;42.75;;;22.25;;
22240;SDS011;11289;52.524;13.694;2024-01-06T03:22:10;45.65;;;24.08;;
22240;SDS011;11289;52.524;13.694;2024-01-06T03:24:36;45.47;;;22.80;;
22240;SDS011;11289;52.524;13.694;2024-01-06T03:27:02;40.80;;;22.38;;
22240;SDS011;11289;52.524;13.694;2024-01-06T03:29:28;41.88;;;24.33;;
22240;SDS011;11289;52.524;13.694;2024-01-06T03:31:54;43.00;;;21.63;;
22240;SDS011;11289;52.524;13.694;2024-01-06T03:34:20;50.05;;;24.33;;
22240;SDS011;11289;52.524;13.694;2024-01-06T03:36:46;44.15;;;23.67;;
22240;SDS011;11289;52.524;13.694;2024-01-06T03:39:12;41.15;;;23.20;;
22240;SDS011;11289;52.524;13.694;2024-01-06T03:41:39;41.70;;;22.55;;
22240;SDS011;11289;52.524;13.694;2024-01-06T03:44:05;42.30;;;22.92;;
22240;SDS011;11289;52.524;13.694;2024-01-06T03:46:33;48.45;;;24.05;;
22240;SDS011;11289;52.524;13.694;2024-01-06T03:49:00;44.80;;;24.38;;
22240;SDS011;11289;52.524;13.694;2024-01-06T03:51:26;45.72;;;23.15;;
22240;SDS011;11289;52.524;13.694;2024-01-06T03:53:52;39.15;;;22.02;;
22240;SDS011;11289;52.524;13.694;2024-01-06T03:56:18;46.00;;;24.20;;
22240;SDS011;11289;52.524;13.694;2024-01-06T03:58:44;43.60;;;23.88;;
22240;SDS011;11289;52.524;13.694;2024-01-06T04:01:10;49.47;;;25.38;;
22240;SDS011;11289;52.524;13.694;2024-01-06T04:03:36;46.15;;;23.95;;
22240;SDS011;11289;52.524;13.694;2024-01-06T04:06:01;45.67;;;24.85;;
22240;SDS011;11289;52.524;13.694;2024-01-06T04:08:27;50.30;;;25.73;;
22240;SDS011;11289;52.524;13.694;2024-01-06T04:10:53;45.60;;;25.05;;
22240;SDS011;11289;52.524;13.694;2024-01-06T04:13:19;42.30;;;23.80;;
22240;SDS011;11289;52.524;13.694;2024-01-06T04:15:45;49.45;;;25.92;;
22240;SDS011;11289;52.524;13.694;2024-01-06T04:18:11;56.20;;;25.40;;
22240;SDS011;11289;52.524;13.694;2024-01-06T04:20:37;47.50;;;25.83;;
22240;SDS011;11289;52.524;13.694;2024-01-06T04:23:03;47.72;;;24.55;;
22240;SDS011;11289;52.524;13.694;2024-01-06T04:25:29;49.08;;;25.70;;
22240;SDS011;11289;52.524;13.694;2024-01-06T04:27:55;51.03;;;24.98;;
22240;SDS011;11289;52.524;13.694;2024-01-06T04:30:21;44.78;;;24.63;;
22240;SDS011;11289;52.524;13.694;2024-01-06T04:32:47;54.65;;;26.77;;
22240;SDS011;11289;52.524;13.694;2024-01-06T04:35:16;54.00;;;26.13;;
22240;SDS011;11289;52.524;13.694;2024-01-06T04:37:42;54.08;;;26.80;;
22240;SDS011;11289;52.524;13.694;2024-01-06T04:40:08;52.65;;;26.90;;
22240;SDS011;11289;52.524;13.694;2024-01-06T04:42:34;56.00;;;25.65;;
22240;SDS011;11289;52.524;13.694;2024-01-06T04:45:00;52.90;;;26.83;;
22240;SDS011;11289;52.524;13.694;2024-01-06T04:47:26;46.72;;;25.48;;
22240;SDS011;11289;52.524;13.694;2024-01-06T04:49:53;60.55;;;27.05;;
22240;SDS011;11289;52.524;13.694;2024-01-06T04:52:19;56.97;;;27.25;;
22240;SDS011;11289;52.524;13.694;2024-01-06T04:54:45;49.88;;;27.23;;
22240;SDS011;11289;52.524;13.694;2024-01-06T04:57:11;51.28;;;24.90;;
22240;SDS011;11289;52.524;13.694;2024-01-06T04:59:37;47.95;;;24.65;;
22240;SDS011;11289;52.524;13.694;2024-01-06T05:02:02;54.08;;;24.80;;
22240;SDS011;11289;52.524;13.694;2024-01-06T05:04:29;45.13;;;24.90;;
22240;SDS011;11289;52.524;13.694;2024-01-06T05:06:57;52.95;;;26.60;;
22240;SDS011;11289;52.524;13.694;2024-01-06T05:09:23;54.17;;;26.65;;
22240;SDS011;11289;52.524;13.694;2024-01-06T05:11:50;54.13;;;26.35;;
22240;SDS011;11289;52.524;13.694;2024-01-06T05:14:16;46.22;;;24.70;;
22240;SDS011;11289;52.524;13.694;2024-01-06T05:16:42;54.08;;;27.52;;
22240;SDS011;11289;52.524;13.694;2024-01-06T05:19:08;58.20;;;26.55;;
22240;SDS011;11289;52.524;13.694;2024-01-06T05:21:34;50.00;;;25.30;;
22240;SDS011;11289;52.524;13.694;2024-01-06T05:24:00;49.05;;;25.88;;
22240;SDS011;11289;52.524;13.694;2024-01-06T05:26:26;50.85;;;25.75;;
22240;SDS011;11289;52.524;13.694;2024-01-06T05:28:52;49.40;;;25.50;;
22240;SDS011;11289;52.524;13.694;2024-01-06T05:31:18;46.22;;;24.63;;
22240;SDS011;11289;52.524;13.694;2024-01-06T05:33:44;48.00;;;25.20;;
22240;SDS011;11289;52.524;13.694;2024-01-06T05:36:10;55.97;;;27.88;;
22240;SDS011;11289;52.524;13.694;2024-01-06T05:38:36;57.00;;;25.33;;
22240;SDS011;11289;52.524;13.694;2024-01-06T05:41:02;47.83;;;25.27;;
22240;SDS011;11289;52.524;13.694;2024-01-06T05:43:28;53.30;;;27.00;;
22240;SDS011;11289;52.524;13.694;2024-01-06T05:45:54;44.10;;;24.60;;
22240;SDS011;11289;52.524;13.694;2024-01-06T05:48:20;48.20;;;26.08;;
22240;SDS011;11289;52.524;13.694;2024-01-06T05:50:46;50.50;;;26.10;;
22240;SDS011;11289;52.524;13.694;2024-01-06T05:53:12;42.60;;;25.00;;
22240;SDS011;11289;52.524;13.694;2024-01-06T05:55:39;42.88;;;24.65;;
22240;SDS011;11289;52.524;13.694;2024-01-06T05:58:05;50.45;;;26.30;;
22240;SDS011;11289;52.524;13.694;2024-01-06T06:00:31;52.33;;;25.15;;
22240;SDS011;11289;52.524;13.694;2024-01-06T06:02:57;49.28;;;26.23;;
22240;SDS011;11289;52.524;13.694;2024-01-06T06:05:24;53.42;;;25.98;;
22240;SDS011;11289;52.524;13.694;2024-01-06T06:07:50;51.80;;;26.27;;
22240;SDS011;11289;52.524;13.694;2024-01-06T06:10:16;50.80;;;25.38;;
22240;SDS011;11289;52.524;13.694;2024-01-06T06:12:44;47.72;;;25.77;;
22240;SDS011;11289;52.524;13.694;2024-01-06T06:15:10;50.58;;;25.15;;
22240;SDS011;11289;52.524;13.694;2024-01-06T06:17:36;49.95;;;23.90;;
22240;SDS011;11289;52.524;13.694;2024-01-06T06:20:02;53.05;;;24.85;;
22240;SDS011;11289;52.524;13.694;2024-01-06T06:22:28;47.38;;;25.60;;
22240;SDS011;11289;52.524;13.694;2024-01-06T06:24:57;54.70;;;26.13;;
22240;SDS011;11289;52.524;13.694;2024-01-06T06:27:24;50.78;;;26.30;;
22240;SDS011;11289;52.524;13.694;2024-01-06T06:29:50;52.05;;;26.13;;
22240;SDS011;11289;52.524;13.694;2024-01-06T06:32:16;50.72;;;25.83;;
22240;SDS011;11289;52.524;13.694;2024-01-06T06:34:42;54.53;;;25.58;;
22240;SDS011;11289;52.524;13.694;2024-01-06T06:37:08;48.13;;;24.60;;
22240;SDS011;11289;52.524;13.694;2024-01-06T06:39:35;55.75;;;26.38;;
22240;SDS011;11289;52.524;13.694;2024-01-06T06:42:02;60.13;;;26.67;;
22240;SDS011;11289;52.524;13.694;2024-01-06T06:44:28;56.42;;;26.80;;
22240;SDS011;11289;52.524;13.694;2024-01-06T06:46:55;53.15;;;27.15;;
22240;SDS011;11289;52.524;13.694;2024-01-06T06:49:21;54.85;;;26.50;;
22240;SDS011;11289;52.524;13.694;2024-01-06T06:51:47;55.88;;;26.77;;
22240;SDS011;11289;52.524;13.694;2024-01-06T06:54:14;56.95;;;27.65;;
22240;SDS011;11289;52.524;13.694;2024-01-06T06:56:43;56.83;;;25.05;;
22240;SDS011;11289;52.524;13.694;2024-01-06T06:59:10;54.42;;;27.27;;
22240;SDS011;11289;52.524;13.694;2024-01-06T07:01:36;55.40;;;27.10;;
22240;SDS011;11289;52.524;13.694;2024-01-06T07:04:03;60.80;;;25.73;;
22240;SDS011;11289;52.524;13.694;2024-01-06T07:06:29;58.63;;;28.63;;
22240;SDS011;11289;52.524;13.694;2024-01-06T07:08:56;52.90;;;26.15;;
22240;SDS011;11289;52.524;13.694;2024-01-06T07:11:22;59.83;;;27.83;;
22240;SDS011;11289;52.524;13.694;2024-01-06T07:13:49;53.75;;;25.98;;
22240;SDS011;11289;52.524;13.694;2024-01-06T07:16:15;56.00;;;25.42;;
22240;SDS011;11289;52.524;13.694;2024-01-06T07:18:41;53.80;;;26.80;;
22240;SDS011;11289;52.524;13.694;2024-01-06T07:21:07;53.53;;;26.02;;
22240;SDS011;11289;52.524;13.694;2024-01-06T07:23:33;51.25;;;25.23;;
22240;SDS011;11289;52.524;13.694;2024-01-06T07:25:59;59.75;;;27.77;;
22240;SDS011;11289;52.524;13.694;2024-01-06T07:28:26;58.53;;;28.25;;
22240;SDS011;11289;52.524;13.694;2024-01-06T07:30:52;65.25;;;26.85;;
22240;SDS011;11289;52.524;13.694;2024-01-06T07:33:18;58.30;;;25.77;;
22240;SDS011;11289;52.524;13.694;2024-01-06T07:35:43;59.75;;;27.33;;
22240;SDS011;11289;52.524;13.694;2024-01-06T07:38:10;60.05;;;26.45;;
22240;SDS011;11289;52.524;13.694;2024-01-06T07:40:36;60.30;;;26.10;;
22240;SDS011;11289;52.524;13.694;2024-01-06T07:43:02;55.60;;;26.48;;
22240;SDS011;11289;52.524;13.694;2024-01-06T07:45:28;57.45;;;27.60;;
22240;SDS011;11289;52.524;13.694;2024-01-06T07:47:54;65.30;;;27.63;;
22240;SDS011;11289;52.524;13.694;2024-01-06T07:50:20;53.75;;;25.27;;
22240;SDS011;11289;52.524;13.694;2024-01-06T07:52:46;59.22;;;25.98;;
22240;SDS011;11289;52.524;13.694;2024-01-06T07:55:12;66.47;;;27.75;;
22240;SDS011;11289;52.524;13.694;2024-01-06T07:57:37;61.13;;;27.00;;
22240;SDS011;11289;52.524;13.694;2024-01-06T08:00:04;53.53;;;26.77;;
22240;SDS011;11289;52.524;13.694;2024-01-06T08:02:30;53.65;;;24.92;;
22240;SDS011;11289;52.524;13.694;2024-01-06T08:04:56;63.33;;;26.08;;
22240;SDS011;11289;52.524;13.694;2024-01-06T08:07:22;58.97;;;26.80;;
22240;SDS011;11289;52.524;13.694;2024-01-06T08:09:48;55.35;;;26.80;;
22240;SDS011;11289;52.524;13.694;2024-01-06T08:12:15;60.05;;;26.98;;
22240;SDS011;11289;52.524;13.694;2024-01-06T08:14:41;53.40;;;25.58;;
22240;SDS011;11289;52.524;13.694;2024-01-06T08:17:07;60.20;;;27.23;;
22240;SDS011;11289;52.524;13.694;2024-01-06T08:19:32;57.40;;;26.92;;
22240;SDS011;11289;52.524;13.694;2024-01-06T08:22:00;54.28;;;26.48;;
22240;SDS011;11289;52.524;13.694;2024-01-06T08:24:26;54.80;;;26.77;;
22240;SDS011;11289;52.524;13.694;2024-01-06T08:26:52;59.75;;;27.42;;
22240;SDS011;11289;52.524;13.694;2024-01-06T08:29:18;63.97;;;28.13;;
22240;SDS011;11289;52.524;13.694;2024-01-06T08:31:45;49.50;;;25.15;;
22240;SDS011;11289;52.524;13.694;2024-01-06T08:34:11;59.80;;;26.27;;
22240;SDS011;11289;52.524;13.694;2024-01-06T08:36:37;54.03;;;24.80;;
22240;SDS011;11289;52.524;13.694;2024-01-06T08:39:04;54.42;;;25.52;;
22240;SDS011;11289;52.524;13.694;2024-01-06T08:41:29;56.58;;;26.38;;
22240;SDS011;11289;52.524;13.694;2024-01-06T08:43:56;57.58;;;28.20;;
22240;SDS011;11289;52.524;13.694;2024-01-06T08:46:21;53.17;;;26.77;;
22240;SDS011;11289;52.524;13.694;2024-01-06T08:48:48;55.33;;;24.80;;
22240;SDS011;11289;52.524;13.694;2024-01-06T08:51:14;54.22;;;26.35;;
22240;SDS011;11289;52.524;13.694;2024-01-06T08:53:40;48.35;;;25.73;;
22240;SDS011;11289;52.524;13.694;2024-01-06T08:56:06;50.40;;;26.67;;
22240;SDS011;11289;52.524;13.694;2024-01-06T08:58:32;48.40;;;24.70;;
22240;SDS011;11289;52.524;13.694;2024-01-06T09:00:58;47.97;;;25.75;;
22240;SDS011;11289;52.524;13.694;2024-01-06T09:03:25;45.53;;;24.35;;
22240;SDS011;11289;52.524;13.694;2024-01-06T09:05:52;43.88;;;21.83;;
22240;SDS011;11289;52.524;13.694;2024-01-06T09:08:18;54.28;;;26.65;;
22240;SDS011;11289;52.524;13.694;2024-01-06T09:10:44;52.83;;;26.73;;
22240;SDS011;11289;52.524;13.694;2024-01-06T09:13:10;54.72;;;27.08;;
22240;SDS011;11289;52.524;13.694;2024-01-06T09:15:36;52.05;;;25.58;;
22240;SDS011;11289;52.524;13.694;2024-01-06T09:18:02;50.30;;;26.67;;
22240;SDS011;11289;52.524;13.694;2024-01-06T09:20:28;49.42;;;26.25;;
22240;SDS011;11289;52.524;13.694;2024-01-06T09:22:54;48.05;;;26.33;;
22240;SDS011;11289;52.524;13.694;2024-01-06T09:25:20;53.55;;;26.35;;
22240;SDS011;11289;52.524;13.694;2024-01-06T09:27:50;53.45;;;28.05;;
22240;SDS011;11289;52.524;13.694;2024-01-06T09:30:17;57.08;;;26.70;;
22240;SDS011;11289;52.524;13.694;2024-01-06T09:32:43;51.92;;;28.23;;
22240;SDS011;11289;52.524;13.694;2024-01-06T09:35:09;60.10;;;28.00;;
22240;SDS011;11289;52.524;13.694;2024-01-06T09:37:36;47.30;;;24.98;;
22240;SDS011;11289;52.524;13.694;2024-01-06T09:40:01;48.38;;;26.45;;
22240;SDS011;11289;52.524;13.694;2024-01-06T09:42:28;48.97;;;25.40;;
22240;SDS011;11289;52.524;13.694;2024-01-06T09:44:54;49.00;;;27.30;;
22240;SDS011;11289;52.524;13.694;2024-01-06T09:47:21;48.35;;;25.60;;
22240;SDS011;11289;52.524;13.694;2024-01-06T09:49:49;49.45;;;24.50;;
22240;SDS011;11289;52.524;13.694;2024-01-06T09:52:17;49.45;;;27.17;;
22240;SDS011;11289;52.524;13.694;2024-01-06T09:54:51;49.85;;;25.35;;
22240;SDS011;11289;52.524;13.694;2024-01-06T09:57:19;52.63;;;26.92;;
22240;SDS011;11289;52.524;13.694;2024-01-06T09:59:46;56.72;;;28.02;;
22240;SDS011;11289;52.524;13.694;2024-01-06T10:02:14;55.03;;;26.85;;
22240;SDS011;11289;52.524;13.694;2024-01-06T10:04:40;46.20;;;25.23;;
22240;SDS011;11289;52.524;13.694;2024-01-06T10:07:07;55.13;;;27.17;;
22240;SDS011;11289;52.524;13.694;2024-01-06T10:09:33;46.70;;;25.40;;
22240;SDS011;11289;52.524;13.694;2024-01-06T10:11:59;46.60;;;25.98;;
22240;SDS011;11289;52.524;13.694;2024-01-06T10:14:25;46.00;;;27.23;;
22240;SDS011;11289;52.524;13.694;2024-01-06T10:16:52;47.90;;;26.13;;
22240;SDS011;11289;52.524;13.694;2024-01-06T10:19:18;50.38;;;26.13;;
22240;SDS011;11289;52.524;13.694;2024-01-06T10:21:44;47.45;;;25.95;;
22240;SDS011;11289;52.524;13.694;2024-01-06T10:24:10;45.40;;;25.60;;
22240;SDS011;11289;52.524;13.694;2024-01-06T10:26:36;47.55;;;26.83;;
22240;SDS011;11289;52.524;13.694;2024-01-06T10:29:02;42.60;;;26.40;;
22240;SDS011;11289;52.524;13.694;2024-01-06T10:31:32;47.72;;;25.08;;
22240;SDS011;11289;52.524;13.694;2024-01-06T10:33:58;53.38;;;26.27;;
22240;SDS011;11289;52.524;13.694;2024-01-06T10:36:25;50.60;;;27.60;;
22240;SDS011;11289;52.524;13.694;2024-01-06T10:38:52;46.95;;;25.88;;
22240;SDS011;11289;52.524;13.694;2024-01-06T10:41:18;48.30;;;28.35;;
22240;SDS011;11289;52.524;13.694;2024-01-06T10:43:46;45.85;;;27.13;;
22240;SDS011;11289;52.524;13.694;2024-01-06T10:46:13;50.17;;;26.83;;
22240;SDS011;11289;52.524;13.694;2024-01-06T10:48:41;47.97;;;25.65;;
22240;SDS011;11289;52.524;13.694;2024-01-06T10:51:08;51.33;;;28.58;;
22240;SDS011;11289;52.524;13.694;2024-01-06T10:53:35;47.47;;;25.98;;
22240;SDS011;11289;52.524;13.694;2024-01-06T10:56:03;40.67;;;22.63;;
22240;SDS011;11289;52.524;13.694;2024-01-06T10:58:30;45.75;;;24.38;;
22240;SDS011;11289;52.524;13.694;2024-01-06T11:00:57;44.22;;;25.63;;
22240;SDS011;11289;52.524;13.694;2024-01-06T11:03:24;40.28;;;23.08;;
22240;SDS011;11289;52.524;13.694;2024-01-06T11:05:50;44.00;;;24.92;;
22240;SDS011;11289;52.524;13.694;2024-01-06T11:08:17;50.45;;;27.75;;
22240;SDS011;11289;52.524;13.694;2024-01-06T11:10:43;46.80;;;26.40;;
22240;SDS011;11289;52.524;13.694;2024-01-06T11:13:14;41.78;;;25.23;;
22240;SDS011;11289;52.524;13.694;2024-01-06T11:15:49;43.55;;;24.70;;
22240;SDS011;11289;52.524;13.694;2024-01-06T11:18:33;44.10;;;24.95;;
22240;SDS011;11289;52.524;13.694;2024-01-06T11:26:31;42.75;;;24.90;;
22240;SDS011;11289;52.524;13.694;2024-01-06T11:28:57;42.67;;;23.17;;
22240;SDS011;11289;52.524;13.694;2024-01-06T11:31:32;43.65;;;23.58;;
22240;SDS011;11289;52.524;13.694;2024-01-06T11:34:11;46.33;;;25.23;;
22240;SDS011;11289;52.524;13.694;2024-01-06T11:39:33;44.97;;;24.35;;
22240;SDS011;11289;52.524;13.694;2024-01-06T11:42:00;46.33;;;25.58;;
22240;SDS011;11289;52.524;13.694;2024-01-06T11:44:28;48.28;;;25.48;;
22240;SDS011;11289;52.524;13.694;2024-01-06T11:46:57;48.35;;;26.17;;
22240;SDS011;11289;52.524;13.694;2024-01-06T11:49:26;47.17;;;25.85;;
22240;SDS011;11289;52.524;13.694;2024-01-06T11:51:58;40.35;;;25.08;;
22240;SDS011;11289;52.524;13.694;2024-01-06T11:54:25;41.22;;;23.42;;
22240;SDS011;11289;52.524;13.694;2024-01-06T11:56:51;41.45;;;24.30;;
22240;SDS011;11289;52.524;13.694;2024-01-06T11:59:21;40.95;;;23.70;;
22240;SDS011;11289;52.524;13.694;2024-01-06T12:01:47;44.85;;;23.48;;
22240;SDS011;11289;52.524;13.694;2024-01-06T12:04:13;41.10;;;22.20;;
22240;SDS011;11289;52.524;13.694;2024-01-06T12:06:41;44.70;;;24.02;;
22240;SDS011;11289;52.524;13.694;2024-01-06T12:09:08;44.22;;;25.73;;
22240;SDS011;11289;52.524;13.694;2024-01-06T12:11:41;47.40;;;24.70;;
22240;SDS011;11289;52.524;13.694;2024-01-06T12:14:09;40.88;;;23.92;;
22240;SDS011;11289;52.524;13.694;2024-01-06T12:16:36;39.97;;;23.90;;
22240;SDS011;11289;52.524;13.694;2024-01-06T12:19:02;43.40;;;24.38;;
22240;SDS011;11289;52.524;13.694;2024-01-06T12:21:29;44.45;;;25.70;;
22240;SDS011;11289;52.524;13.694;2024-01-06T12:26:43;42.25;;;25.25;;
22240;SDS011;11289;52.524;13.694;2024-01-06T12:29:09;42.83;;;23.20;;
22240;SDS011;11289;52.524;13.694;2024-01-06T12:31:35;39.55;;;21.92;;
22240;SDS011;11289;52.524;13.694;2024-01-06T12:34:01;44.28;;;24.52;;
22240;SDS011;11289;52.524;13.694;2024-01-06T12:36:27;37.25;;;22.58;;
22240;SDS011;11289;52.524;13.694;2024-01-06T12:38:53;42.38;;;23.52;;
22240;SDS011;11289;52.524;13.694;2024-01-06T12:41:21;39.72;;;24.75;;
22240;SDS011;11289;52.524;13.694;2024-01-06T12:43:48;42.92;;;23.40;;
22240;SDS011;11289;52.524;13.694;2024-01-06T12:46:14;41.15;;;22.85;;
22240;SDS011;11289;52.524;13.694;2024-01-06T12:48:40;34.97;;;21.63;;
22240;SDS011;11289;52.524;13.694;2024-01-06T12:51:06;37.00;;;19.95;;
22240;SDS011;11289;52.524;13.694;2024-01-06T12:53:32;33.63;;;20.45;;
22240;SDS011;11289;52.524;13.694;2024-01-06T12:55:58;36.55;;;20.05;;
22240;SDS011;11289;52.524;13.694;2024-01-06T12:58:24;33.45;;;19.75;;
22240;SDS011;11289;52.524;13.694;2024-01-06T13:00:50;42.53;;;21.13;;
22240;SDS011;11289;52.524;13.694;2024-01-06T13:03:16;38.97;;;21.58;;
22240;SDS011;11289;52.524;13.694;2024-01-06T13:05:42;37.22;;;20.98;;
22240;SDS011;11289;52.524;13.694;2024-01-06T13:08:08;34.35;;;19.65;;
22240;SDS011;11289;52.524;13.694;2024-01-06T13:10:34;36.72;;;20.00;;
22240;SDS011;11289;52.524;13.694;2024-01-06T13:13:01;40.85;;;19.85;;
22240;SDS011;11289;52.524;13.694;2024-01-06T13:15:28;35.55;;;19.83;;
22240;SDS011;11289;52.524;13.694;2024-01-06T13:17:53;32.95;;;18.45;;
22240;SDS011;11289;52.524;13.694;2024-01-06T13:20:19;37.05;;;20.25;;
22240;SDS011;11289;52.524;13.694;2024-01-06T13:22:46;31.63;;;18.90;;
22240;SDS011;11289;52.524;13.694;2024-01-06T13:25:12;35.25;;;18.00;;
22240;SDS011;11289;52.524;13.694;2024-01-06T13:27:38;34.67;;;18.73;;
22240;SDS011;11289;52.524;13.694;2024-01-06T13:30:04;34.55;;;17.75;;
22240;SDS011;11289;52.524;13.694;2024-01-06T13:32:31;33.58;;;19.55;;
22240;SDS011;11289;52.524;13.694;2024-01-06T13:34:57;32.03;;;18.60;;
22240;SDS011;11289;52.524;13.694;2024-01-06T13:37:31;36.50;;;20.75;;
22240;SDS011;11289;52.524;13.694;2024-01-06T13:39:57;39.33;;;20.35;;
22240;SDS011;11289;52.524;13.694;2024-01-06T13:42:23;41.95;;;21.13;;
22240;SDS011;11289;52.524;13.694;2024-01-06T13:44:49;39.28;;;20.75;;
22240;SDS011;11289;52.524;13.694;2024-01-06T13:47:15;37.10;;;20.70;;
22240;SDS011;11289;52.524;13.694;2024-01-06T13:49:41;32.38;;;18.38;;
22240;SDS011;11289;52.524;13.694;2024-01-06T13:52:07;38.40;;;19.77;;
22240;SDS011;11289;52.524;13.694;2024-01-06T13:54:34;32.08;;;21.00;;
22240;SDS011;11289;52.524;13.694;2024-01-06T13:57:00;31.27;;;18.15;;
22240;SDS011;11289;52.524;13.694;2024-01-06T13:59:27;38.88;;;20.45;;
22240;SDS011;11289;52.524;13.694;2024-01-06T14:01:53;38.33;;;20.48;;
22240;SDS011;11289;52.524;13.694;2024-01-06T14:04:19;32.47;;;19.75;;
22240;SDS011;11289;52.524;13.694;2024-01-06T14:06:45;35.17;;;20.83;;
22240;SDS011;11289;52.524;13.694;2024-01-06T14:09:13;36.97;;;20.55;;
22240;SDS011;11289;52.524;13.694;2024-01-06T14:11:39;34.28;;;19.50;;
22240;SDS011;11289;52.524;13.694;2024-01-06T14:14:05;39.78;;;20.73;;
22240;SDS011;11289;52.524;13.694;2024-01-06T14:16:31;36.47;;;19.88;;